sensor_id;sensor_type;location;lat;lon;timestamp;pressure;altitude;pressure_sealevel;temperature;humidity
77120;BME280;66073;47.730;9.352;2023-02-15T00:00:16;98136.59;;;-1.15;90.91
77120;BME280;66073;47.730;9.352;2023-02-15T00:02:43;98133.16;;;-1.15;90.76
77120;BME280;66073;47.730;9.352;2023-02-15T00:05:08;98134.44;;;-1.03;90.82
77120;BME280;66073;47.730;9.352;2023-02-15T00:07:34;98136.25;;;-1.04;90.55
77120;BME280;66073;47.730;9.352;2023-02-15T00:09:59;98132.00;;;-1.13;90.58
77120;BME280;66073;47.730;9.352;2023-02-15T00:12:25;98120.03;;;-0.99;90.74
77120;BME280;66073;47.730;9.352;2023-02-15T00:14:50;98127.34;;;-0.62;90.05
77120;BME280;66073;47.730;9.352;2023-02-15T00:17:16;98114.75;;;-0.28;88.86
77120;BME280;66073;47.730;9.352;2023-02-15T00:19:41;98115.28;;;-0.32;87.27
77120;BME280;66073;47.730;9.352;2023-02-15T00:22:07;98113.63;;;-0.03;86.49
77120;BME280;66073;47.730;9.352;2023-02-15T00:24:32;98120.84;;;-0.82;87.52
77120;BME280;66073;47.730;9.352;2023-02-15T00:26:58;98115.81;;;-0.53;88.64
77120;BME280;66073;47.730;9.352;2023-02-15T00:29:24;98122.91;;;-0.54;87.33
77120;BME280;66073;47.730;9.352;2023-02-15T00:31:50;98116.34;;;-0.58;88.43
77120;BME280;66073;47.730;9.352;2023-02-15T00:34:19;98119.19;;;-0.83;88.76
77120;BME280;66073;47.730;9.352;2023-02-15T00:36:46;98106.78;;;-1.14;89.41
77120;BME280;66073;47.730;9.352;2023-02-15T00:39:12;98111.22;;;-1.14;90.36
77120;BME280;66073;47.730;9.352;2023-02-15T00:41:38;98111.38;;;-1.24;90.68
77120;BME280;66073;47.730;9.352;2023-02-15T00:44:04;98112.03;;;-1.30;90.92
77120;BME280;66073;47.730;9.352;2023-02-15T00:46:29;98104.84;;;-1.36;90.92
77120;BME280;66073;47.730;9.352;2023-02-15T00:48:56;98108.59;;;-1.22;91.50
77120;BME280;66073;47.730;9.352;2023-02-15T00:51:22;98102.53;;;-1.23;91.06
77120;BME280;66073;47.730;9.352;2023-02-15T00:53:48;98102.03;;;-1.02;90.74
77120;BME280;66073;47.730;9.352;2023-02-15T00:56:14;98108.41;;;-0.96;90.13
77120;BME280;66073;47.730;9.352;2023-02-15T00:58:39;98101.88;;;-1.09;89.97
77120;BME280;66073;47.730;9.352;2023-02-15T01:01:17;98106.31;;;-1.33;91.00
77120;BME280;66073;47.730;9.352;2023-02-15T01:03:43;98102.22;;;-1.04;90.51
77120;BME280;66073;47.730;9.352;2023-02-15T01:06:10;98104.81;;;-1.28;90.45
77120;BME280;66073;47.730;9.352;2023-02-15T01:08:36;98098.94;;;-1.38;90.31
77120;BME280;66073;47.730;9.352;2023-02-15T01:11:05;98108.75;;;-1.16;90.72
77120;BME280;66073;47.730;9.352;2023-02-15T01:13:31;98112.72;;;-1.36;90.90
77120;BME280;66073;47.730;9.352;2023-02-15T01:15:56;98110.22;;;-1.45;91.03
77120;BME280;66073;47.730;9.352;2023-02-15T01:18:22;98114.31;;;-1.35;91.12
77120;BME280;66073;47.730;9.352;2023-02-15T01:20:48;98113.00;;;-1.55;91.15
77120;BME280;66073;47.730;9.352;2023-02-15T01:23:14;98113.69;;;-1.61;91.49
77120;BME280;66073;47.730;9.352;2023-02-15T01:25:40;98107.78;;;-1.39;91.26
77120;BME280;66073;47.730;9.352;2023-02-15T01:28:06;98108.91;;;-1.09;90.96
77120;BME280;66073;47.730;9.352;2023-02-15T01:30:32;98107.75;;;-0.90;90.21
77120;BME280;66073;47.730;9.352;2023-02-15T01:32:57;98106.72;;;-0.73;89.01
77120;BME280;66073;47.730;9.352;2023-02-15T01:35:27;98113.88;;;-0.59;88.50
77120;BME280;66073;47.730;9.352;2023-02-15T01:37:54;98109.31;;;-0.57;87.38
77120;BME280;66073;47.730;9.352;2023-02-15T01:40:19;98106.97;;;-0.52;87.54
77120;BME280;66073;47.730;9.352;2023-02-15T01:42:45;98117.69;;;-0.23;87.05
77120;BME280;66073;47.730;9.352;2023-02-15T01:45:31;98107.94;;;-0.14;83.97
77120;BME280;66073;47.730;9.352;2023-02-15T01:48:06;98106.34;;;-0.54;85.17
77120;BME280;66073;47.730;9.352;2023-02-15T01:50:43;98106.09;;;-1.00;86.51
77120;BME280;66073;47.730;9.352;2023-02-15T01:53:21;98110.38;;;-0.98;88.27
77120;BME280;66073;47.730;9.352;2023-02-15T01:55:59;98106.34;;;-0.62;87.20
77120;BME280;66073;47.730;9.352;2023-02-15T01:58:28;98112.91;;;-0.58;86.40
77120;BME280;66073;47.730;9.352;2023-02-15T02:00:57;98107.13;;;-1.09;86.42
77120;BME280;66073;47.730;9.352;2023-02-15T02:03:36;98107.13;;;-1.17;89.08
77120;BME280;66073;47.730;9.352;2023-02-15T02:06:04;98098.25;;;-1.00;88.34
77120;BME280;66073;47.730;9.352;2023-02-15T02:08:30;98098.03;;;-0.74;87.76
77120;BME280;66073;47.730;9.352;2023-02-15T02:10:56;98090.50;;;-0.85;87.23
77120;BME280;66073;47.730;9.352;2023-02-15T02:13:22;98094.34;;;-1.04;86.99
77120;BME280;66073;47.730;9.352;2023-02-15T02:16:00;98095.03;;;-1.34;87.79
77120;BME280;66073;47.730;9.352;2023-02-15T02:18:35;98089.59;;;-1.00;87.75
77120;BME280;66073;47.730;9.352;2023-02-15T02:22:08;98096.28;;;-0.97;86.78
77120;BME280;66073;47.730;9.352;2023-02-15T02:30:24;98100.91;;;-1.32;87.87
77120;BME280;66073;47.730;9.352;2023-02-15T02:33:24;98102.22;;;-1.20;87.50
77120;BME280;66073;47.730;9.352;2023-02-15T02:46:17;98105.94;;;-0.98;86.25
77120;BME280;66073;47.730;9.352;2023-02-15T02:48:48;98103.84;;;-1.19;86.61
77120;BME280;66073;47.730;9.352;2023-02-15T02:51:14;98107.78;;;-1.23;87.88
77120;BME280;66073;47.730;9.352;2023-02-15T02:53:45;98107.59;;;-1.13;87.21
77120;BME280;66073;47.730;9.352;2023-02-15T02:58:49;98105.47;;;-1.18;87.28
77120;BME280;66073;47.730;9.352;2023-02-15T03:01:38;98104.19;;;-1.22;86.24
77120;BME280;66073;47.730;9.352;2023-02-15T03:04:18;98096.88;;;-0.71;86.45
77120;BME280;66073;47.730;9.352;2023-02-15T03:06:55;98095.13;;;-0.79;85.36
77120;BME280;66073;47.730;9.352;2023-02-15T03:09:28;98100.91;;;-1.16;85.52
77120;BME280;66073;47.730;9.352;2023-02-15T03:12:01;98097.63;;;-1.42;87.26
77120;BME280;66073;47.730;9.352;2023-02-15T03:14:29;98100.56;;;-1.21;86.53
77120;BME280;66073;47.730;9.352;2023-02-15T03:16:56;98103.22;;;-1.37;86.78
77120;BME280;66073;47.730;9.352;2023-02-15T03:19:33;98104.16;;;-0.97;85.40
77120;BME280;66073;47.730;9.352;2023-02-15T03:22:08;98097.59;;;-1.18;86.58
77120;BME280;66073;47.730;9.352;2023-02-15T03:24:49;98103.53;;;-1.16;85.55
77120;BME280;66073;47.730;9.352;2023-02-15T03:27:24;98099.72;;;-0.97;84.56
77120;BME280;66073;47.730;9.352;2023-02-15T03:29:54;98098.50;;;-0.70;83.79
77120;BME280;66073;47.730;9.352;2023-02-15T03:32:23;98099.44;;;-1.18;84.37
77120;BME280;66073;47.730;9.352;2023-02-15T03:34:54;98098.94;;;-1.38;85.05
77120;BME280;66073;47.730;9.352;2023-02-15T03:45:54;98097.59;;;-1.18;85.11
77120;BME280;66073;47.730;9.352;2023-02-15T03:48:39;98098.28;;;-1.08;84.88
77120;BME280;66073;47.730;9.352;2023-02-15T03:51:10;98095.97;;;-0.94;85.37
77120;BME280;66073;47.730;9.352;2023-02-15T03:53:58;98105.34;;;-1.65;86.42
77120;BME280;66073;47.730;9.352;2023-02-15T03:56:25;98098.63;;;-1.43;86.45
77120;BME280;66073;47.730;9.352;2023-02-15T03:58:51;98102.38;;;-1.37;86.01
77120;BME280;66073;47.730;9.352;2023-02-15T04:04:34;98103.97;;;-2.01;87.40
77120;BME280;66073;47.730;9.352;2023-02-15T04:07:02;98101.66;;;-2.04;88.44
77120;BME280;66073;47.730;9.352;2023-02-15T04:09:29;98098.22;;;-2.05;88.71
77120;BME280;66073;47.730;9.352;2023-02-15T04:12:12;98106.47;;;-1.59;87.99
77120;BME280;66073;47.730;9.352;2023-02-15T04:14:38;98110.97;;;-2.02;88.95
77120;BME280;66073;47.730;9.352;2023-02-15T04:17:25;98116.84;;;-2.00;88.97
77120;BME280;66073;47.730;9.352;2023-02-15T04:19:51;98112.25;;;-2.14;89.41
77120;BME280;66073;47.730;9.352;2023-02-15T04:22:35;98114.44;;;-1.93;89.36
77120;BME280;66073;47.730;9.352;2023-02-15T04:25:19;98116.59;;;-1.72;89.19
77120;BME280;66073;47.730;9.352;2023-02-15T04:27:49;98113.16;;;-1.73;88.94
77120;BME280;66073;47.730;9.352;2023-02-15T04:30:16;98120.47;;;-1.92;88.84
77120;BME280;66073;47.730;9.352;2023-02-15T04:32:43;98115.78;;;-1.57;88.47
77120;BME280;66073;47.730;9.352;2023-02-15T04:35:09;98113.31;;;-1.90;88.07
77120;BME280;66073;47.730;9.352;2023-02-15T04:37:36;98116.19;;;-2.18;88.79
77120;BME280;66073;47.730;9.352;2023-02-15T04:40:07;98117.69;;;-2.07;89.24
77120;BME280;66073;47.730;9.352;2023-02-15T04:42:33;98115.13;;;-1.83;89.57
77120;BME280;66073;47.730;9.352;2023-02-15T04:44:58;98111.75;;;-2.17;88.79
77120;BME280;66073;47.730;9.352;2023-02-15T04:47:24;98110.00;;;-1.92;89.55
77120;BME280;66073;47.730;9.352;2023-02-15T04:49:50;98107.91;;;-1.81;88.52
77120;BME280;66073;47.730;9.352;2023-02-15T04:52:15;98106.09;;;-1.96;88.61
77120;BME280;66073;47.730;9.352;2023-02-15T04:54:43;98101.88;;;-1.73;88.83
77120;BME280;66073;47.730;9.352;2023-02-15T04:57:09;98106.28;;;-2.40;89.82
77120;BME280;66073;47.730;9.352;2023-02-15T04:59:34;98105.00;;;-2.28;90.16
77120;BME280;66073;47.730;9.352;2023-02-15T05:02:00;98112.84;;;-2.36;90.48
77120;BME280;66073;47.730;9.352;2023-02-15T05:04:25;98108.63;;;-2.29;90.34
77120;BME280;66073;47.730;9.352;2023-02-15T05:06:51;98108.13;;;-2.24;90.50
77120;BME280;66073;47.730;9.352;2023-02-15T05:09:16;98109.31;;;-2.19;90.23
77120;BME280;66073;47.730;9.352;2023-02-15T05:11:42;98104.09;;;-2.03;90.14
77120;BME280;66073;47.730;9.352;2023-02-15T05:14:07;98107.25;;;-1.91;89.30
77120;BME280;66073;47.730;9.352;2023-02-15T05:16:33;98112.94;;;-2.04;89.46
77120;BME280;66073;47.730;9.352;2023-02-15T05:18:59;98109.81;;;-2.15;89.83
77120;BME280;66073;47.730;9.352;2023-02-15T05:21:25;98106.69;;;-2.19;90.18
77120;BME280;66073;47.730;9.352;2023-02-15T05:23:50;98110.75;;;-1.50;89.56
77120;BME280;66073;47.730;9.352;2023-02-15T05:26:19;98106.09;;;-1.96;88.94
77120;BME280;66073;47.730;9.352;2023-02-15T05:29:04;98108.63;;;-2.29;90.18
77120;BME280;66073;47.730;9.352;2023-02-15T05:31:31;98105.72;;;-2.18;90.56
77120;BME280;66073;47.730;9.352;2023-02-15T05:33:57;98103.25;;;-2.19;90.50
77120;BME280;66073;47.730;9.352;2023-02-15T05:36:22;98101.09;;;-2.24;90.30
77120;BME280;66073;47.730;9.352;2023-02-15T05:38:48;98093.94;;;-2.22;90.30
77120;BME280;66073;47.730;9.352;2023-02-15T05:41:14;98093.22;;;-2.40;90.67
77120;BME280;66073;47.730;9.352;2023-02-15T05:43:39;98101.38;;;-2.43;90.69
77120;BME280;66073;47.730;9.352;2023-02-15T05:46:05;98100.69;;;-1.95;90.71
77120;BME280;66073;47.730;9.352;2023-02-15T05:48:33;98099.91;;;-1.79;89.65
77120;BME280;66073;47.730;9.352;2023-02-15T05:51:10;98101.53;;;-1.70;88.77
77120;BME280;66073;47.730;9.352;2023-02-15T05:53:39;98102.19;;;-1.84;88.89
77120;BME280;66073;47.730;9.352;2023-02-15T05:56:06;98102.28;;;-2.10;88.90
77120;BME280;66073;47.730;9.352;2023-02-15T05:58:35;98104.78;;;-1.92;89.49
77120;BME280;66073;47.730;9.352;2023-02-15T06:01:12;98104.81;;;-1.76;88.95
77120;BME280;66073;47.730;9.352;2023-02-15T06:03:39;98099.81;;;-2.20;88.97
77120;BME280;66073;47.730;9.352;2023-02-15T06:06:05;98107.34;;;-2.25;89.80
77120;BME280;66073;47.730;9.352;2023-02-15T06:08:32;98101.75;;;-2.30;90.33
77120;BME280;66073;47.730;9.352;2023-02-15T06:10:58;98111.72;;;-2.33;90.22
77120;BME280;66073;47.730;9.352;2023-02-15T06:13:25;98116.66;;;-2.56;90.35
77120;BME280;66073;47.730;9.352;2023-02-15T06:15:50;98118.25;;;-2.63;90.86
77120;BME280;66073;47.730;9.352;2023-02-15T06:18:16;98120.34;;;-2.41;91.30
77120;BME280;66073;47.730;9.352;2023-02-15T06:20:41;98123.03;;;-2.59;90.68
77120;BME280;66073;47.730;9.352;2023-02-15T06:23:07;98129.13;;;-2.50;91.14
77120;BME280;66073;47.730;9.352;2023-02-15T06:25:32;98130.59;;;-2.47;91.01
77120;BME280;66073;47.730;9.352;2023-02-15T06:27:58;98130.06;;;-2.59;91.05
77120;BME280;66073;47.730;9.352;2023-02-15T06:30:23;98126.84;;;-2.45;91.15
77120;BME280;66073;47.730;9.352;2023-02-15T06:32:49;98133.69;;;-2.52;90.92
77120;BME280;66073;47.730;9.352;2023-02-15T06:35:14;98142.56;;;-2.37;90.86
77120;BME280;66073;47.730;9.352;2023-02-15T06:37:40;98134.50;;;-2.10;90.50
77120;BME280;66073;47.730;9.352;2023-02-15T06:40:06;98129.66;;;-1.96;90.29
77120;BME280;66073;47.730;9.352;2023-02-15T06:42:32;98128.25;;;-2.17;89.46
77120;BME280;66073;47.730;9.352;2023-02-15T06:44:57;98137.78;;;-2.08;89.34
77120;BME280;66073;47.730;9.352;2023-02-15T06:47:24;98131.00;;;-1.76;89.21
77120;BME280;66073;47.730;9.352;2023-02-15T06:49:49;98131.63;;;-1.90;87.84
77120;BME280;66073;47.730;9.352;2023-02-15T06:52:15;98131.09;;;-2.02;87.93
77120;BME280;66073;47.730;9.352;2023-02-15T06:54:40;98135.88;;;-1.89;88.17
77120;BME280;66073;47.730;9.352;2023-02-15T06:57:06;98126.50;;;-2.08;86.96
77120;BME280;66073;47.730;9.352;2023-02-15T06:59:31;98125.72;;;-2.01;87.95
77120;BME280;66073;47.730;9.352;2023-02-15T07:01:57;98132.94;;;-1.70;86.21
77120;BME280;66073;47.730;9.352;2023-02-15T07:04:22;98136.88;;;-1.82;85.98
77120;BME280;66073;47.730;9.352;2023-02-15T07:06:48;98140.19;;;-2.22;86.53
77120;BME280;66073;47.730;9.352;2023-02-15T07:09:13;98148.22;;;-2.16;87.70
77120;BME280;66073;47.730;9.352;2023-02-15T07:11:39;98154.97;;;-1.89;86.51
77120;BME280;66073;47.730;9.352;2023-02-15T07:14:23;98152.16;;;-2.54;88.85
77120;BME280;66073;47.730;9.352;2023-02-15T07:16:48;98154.31;;;-2.41;88.61
77120;BME280;66073;47.730;9.352;2023-02-15T07:19:14;98150.56;;;-2.38;88.94
77120;BME280;66073;47.730;9.352;2023-02-15T07:21:39;98149.41;;;-2.02;87.68
77120;BME280;66073;47.730;9.352;2023-02-15T07:24:05;98151.63;;;-2.57;88.09
77120;BME280;66073;47.730;9.352;2023-02-15T07:26:32;98150.28;;;-2.27;89.12
77120;BME280;66073;47.730;9.352;2023-02-15T07:28:57;98152.50;;;-1.98;88.46
77120;BME280;66073;47.730;9.352;2023-02-15T07:31:23;98158.75;;;-1.91;87.91
77120;BME280;66073;47.730;9.352;2023-02-15T07:33:48;98157.09;;;-1.92;87.86
77120;BME280;66073;47.730;9.352;2023-02-15T07:36:14;98154.41;;;-2.17;88.19
77120;BME280;66073;47.730;9.352;2023-02-15T07:38:41;98155.31;;;-1.92;88.90
77120;BME280;66073;47.730;9.352;2023-02-15T07:41:09;98146.72;;;-1.60;87.46
77120;BME280;66073;47.730;9.352;2023-02-15T07:43:37;98146.41;;;-1.49;86.10
77120;BME280;66073;47.730;9.352;2023-02-15T07:46:06;98146.69;;;-1.76;85.31
77120;BME280;66073;47.730;9.352;2023-02-15T07:48:33;98154.00;;;-2.38;87.53
77120;BME280;66073;47.730;9.352;2023-02-15T07:51:04;98146.78;;;-2.44;88.51
77120;BME280;66073;47.730;9.352;2023-02-15T07:53:31;98143.13;;;-2.17;88.38
77120;BME280;66073;47.730;9.352;2023-02-15T07:56:05;98136.38;;;-1.70;86.76
77120;BME280;66073;47.730;9.352;2023-02-15T07:58:35;98132.81;;;-1.69;85.50
77120;BME280;66073;47.730;9.352;2023-02-15T08:01:37;98130.69;;;-1.57;85.12
77120;BME280;66073;47.730;9.352;2023-02-15T08:04:04;98128.75;;;-1.47;84.59
77120;BME280;66073;47.730;9.352;2023-02-15T08:06:33;98132.94;;;-1.86;86.03
77120;BME280;66073;47.730;9.352;2023-02-15T08:09:00;98124.81;;;-2.25;87.35
77120;BME280;66073;47.730;9.352;2023-02-15T08:11:28;98133.19;;;-2.06;87.51
77120;BME280;66073;47.730;9.352;2023-02-15T08:14:01;98131.31;;;-1.63;86.50
77120;BME280;66073;47.730;9.352;2023-02-15T08:16:47;98128.72;;;-1.55;86.33
77120;BME280;66073;47.730;9.352;2023-02-15T08:21:45;98120.19;;;-1.89;86.54
77120;BME280;66073;47.730;9.352;2023-02-15T08:24:12;98120.84;;;-1.79;87.45
77120;BME280;66073;47.730;9.352;2023-02-15T08:26:39;98123.56;;;-2.05;87.90
77120;BME280;66073;47.730;9.352;2023-02-15T08:29:06;98118.00;;;-2.02;88.57
77120;BME280;66073;47.730;9.352;2023-02-15T08:31:33;98121.81;;;-1.96;88.24
77120;BME280;66073;47.730;9.352;2023-02-15T08:33:59;98127.69;;;-1.78;88.55
77120;BME280;66073;47.730;9.352;2023-02-15T08:36:27;98125.78;;;-1.04;87.09
77120;BME280;66073;47.730;9.352;2023-02-15T08:38:54;98120.50;;;-0.87;84.49
77120;BME280;66073;47.730;9.352;2023-02-15T08:41:23;98126.13;;;-1.47;85.36
77120;BME280;66073;47.730;9.352;2023-02-15T08:43:51;98125.69;;;-1.92;86.57
77120;BME280;66073;47.730;9.352;2023-02-15T08:46:18;98123.16;;;-1.60;87.38
77120;BME280;66073;47.730;9.352;2023-02-15T08:48:44;98119.56;;;-1.19;86.38
77120;BME280;66073;47.730;9.352;2023-02-15T08:51:21;98119.88;;;-1.06;86.06
77120;BME280;66073;47.730;9.352;2023-02-15T08:53:51;98119.88;;;-0.89;85.16
77120;BME280;66073;47.730;9.352;2023-02-15T08:56:21;98122.31;;;-0.88;83.95
77120;BME280;66073;47.730;9.352;2023-02-15T08:58:47;98114.97;;;-1.17;85.12
77120;BME280;66073;47.730;9.352;2023-02-15T09:01:21;98114.31;;;-1.59;85.44
77120;BME280;66073;47.730;9.352;2023-02-15T09:03:49;98112.84;;;-1.45;87.13
77120;BME280;66073;47.730;9.352;2023-02-15T09:06:16;98102.78;;;-0.77;85.92
77120;BME280;66073;47.730;9.352;2023-02-15T09:08:41;98113.97;;;-0.91;85.39
77120;BME280;66073;47.730;9.352;2023-02-15T09:11:12;98115.31;;;-0.48;85.89
77120;BME280;66073;47.730;9.352;2023-02-15T09:13:39;98108.50;;;-0.74;84.50
77120;BME280;66073;47.730;9.352;2023-02-15T09:16:08;98109.53;;;-0.99;84.82
77120;BME280;66073;47.730;9.352;2023-02-15T09:18:36;98109.41;;;-1.06;85.66
77120;BME280;66073;47.730;9.352;2023-02-15T09:21:07;98108.09;;;-1.10;86.91
77120;BME280;66073;47.730;9.352;2023-02-15T09:23:34;98107.06;;;-0.92;85.29
77120;BME280;66073;47.730;9.352;2023-02-15T09:26:04;98108.91;;;-1.01;85.41
77120;BME280;66073;47.730;9.352;2023-02-15T09:28:31;98104.06;;;-0.65;85.13
77120;BME280;66073;47.730;9.352;2023-02-15T09:31:05;98100.72;;;-0.43;83.83
77120;BME280;66073;47.730;9.352;2023-02-15T09:33:30;98110.03;;;-0.87;85.30
77120;BME280;66073;47.730;9.352;2023-02-15T09:35:56;98099.59;;;-0.18;83.00
77120;BME280;66073;47.730;9.352;2023-02-15T09:38:22;98101.72;;;-0.52;82.17
77120;BME280;66073;47.730;9.352;2023-02-15T09:41:02;98093.88;;;-1.15;85.33
77120;BME280;66073;47.730;9.352;2023-02-15T09:46:16;98092.94;;;-0.67;85.39
77120;BME280;66073;47.730;9.352;2023-02-15T09:48:54;98097.41;;;-0.06;82.21
77120;BME280;66073;47.730;9.352;2023-02-15T10:00:18;98093.88;;;-1.31;87.50
77120;BME280;66073;47.730;9.352;2023-02-15T10:17:07;98087.41;;;-0.80;83.72
77120;BME280;66073;47.730;9.352;2023-02-15T10:22:42;98092.22;;;-0.53;85.48
77120;BME280;66073;47.730;9.352;2023-02-15T10:28:06;98069.56;;;-0.46;84.09
77120;BME280;66073;47.730;9.352;2023-02-15T10:30:47;98069.25;;;-0.98;86.10
77120;BME280;66073;47.730;9.352;2023-02-15T10:36:11;98062.00;;;-0.72;86.82
77120;BME280;66073;47.730;9.352;2023-02-15T10:38:52;98064.38;;;-0.54;86.34
77120;BME280;66073;47.730;9.352;2023-02-15T10:44:19;98061.41;;;-1.06;86.37
77120;BME280;66073;47.730;9.352;2023-02-15T10:49:46;98062.16;;;-0.73;87.20
77120;BME280;66073;47.730;9.352;2023-02-15T10:52:44;98061.16;;;0.43;83.46
77120;BME280;66073;47.730;9.352;2023-02-15T10:55:52;98051.94;;;0.47;80.77
77120;BME280;66073;47.730;9.352;2023-02-15T11:01:34;98045.81;;;0.55;82.66
77120;BME280;66073;47.730;9.352;2023-02-15T11:07:28;98033.75;;;-1.01;86.04
77120;BME280;66073;47.730;9.352;2023-02-15T11:10:37;98026.59;;;0.54;84.53
77120;BME280;66073;47.730;9.352;2023-02-15T11:13:18;98018.50;;;1.22;79.98
77120;BME280;66073;47.730;9.352;2023-02-15T11:15:59;98010.53;;;1.16;79.32
77120;BME280;66073;47.730;9.352;2023-02-15T11:21:22;98009.25;;;1.12;81.24
77120;BME280;66073;47.730;9.352;2023-02-15T11:23:51;98009.47;;;0.95;81.04
77120;BME280;66073;47.730;9.352;2023-02-15T11:29:12;98014.38;;;-0.22;85.50
77120;BME280;66073;47.730;9.352;2023-02-15T11:31:51;98008.56;;;0.14;85.38
77120;BME280;66073;47.730;9.352;2023-02-15T11:34:38;98001.41;;;0.45;84.63
77120;BME280;66073;47.730;9.352;2023-02-15T11:37:11;97989.19;;;1.40;81.36
77120;BME280;66073;47.730;9.352;2023-02-15T11:39:39;97990.50;;;1.15;81.52
77120;BME280;66073;47.730;9.352;2023-02-15T11:42:15;97978.44;;;1.35;79.96
77120;BME280;66073;47.730;9.352;2023-02-15T11:47:26;97980.47;;;1.75;79.73
77120;BME280;66073;47.730;9.352;2023-02-15T11:49:51;97978.97;;;1.66;80.11
77120;BME280;66073;47.730;9.352;2023-02-15T11:52:18;97980.88;;;0.26;83.15
77120;BME280;66073;47.730;9.352;2023-02-15T11:54:50;97972.97;;;0.48;83.87
77120;BME280;66073;47.730;9.352;2023-02-15T11:57:39;97971.38;;;0.91;82.31
77120;BME280;66073;47.730;9.352;2023-02-15T12:03:35;97964.13;;;0.93;83.23
77120;BME280;66073;47.730;9.352;2023-02-15T12:06:04;97967.91;;;1.71;80.60
77120;BME280;66073;47.730;9.352;2023-02-15T12:08:40;97961.31;;;1.60;81.03
77120;BME280;66073;47.730;9.352;2023-02-15T12:11:17;97958.44;;;1.97;80.32
77120;BME280;66073;47.730;9.352;2023-02-15T12:16:19;97950.63;;;1.47;81.22
77120;BME280;66073;47.730;9.352;2023-02-15T12:18:47;97946.91;;;1.06;82.25
77120;BME280;66073;47.730;9.352;2023-02-15T12:21:26;97941.88;;;1.25;83.66
77120;BME280;66073;47.730;9.352;2023-02-15T12:23:57;97939.66;;;1.43;83.04
77120;BME280;66073;47.730;9.352;2023-02-15T12:26:25;97926.94;;;2.32;79.47
77120;BME280;66073;47.730;9.352;2023-02-15T12:28:54;97925.19;;;2.18;79.26
77120;BME280;66073;47.730;9.352;2023-02-15T12:33:54;97926.66;;;2.20;80.58
77120;BME280;66073;47.730;9.352;2023-02-15T12:36:25;97920.81;;;1.61;82.20
77120;BME280;66073;47.730;9.352;2023-02-15T12:41:37;97924.56;;;2.16;81.95
77120;BME280;66073;47.730;9.352;2023-02-15T12:44:17;97919.00;;;1.83;81.04
77120;BME280;66073;47.730;9.352;2023-02-15T12:47:05;97909.53;;;2.10;81.70
77120;BME280;66073;47.730;9.352;2023-02-15T12:49:34;97909.84;;;2.90;78.33
77120;BME280;66073;47.730;9.352;2023-02-15T12:52:05;97907.81;;;2.51;78.59
77120;BME280;66073;47.730;9.352;2023-02-15T12:54:37;97908.47;;;2.04;80.31
77120;BME280;66073;47.730;9.352;2023-02-15T12:57:23;97902.16;;;1.98;80.89
77120;BME280;66073;47.730;9.352;2023-02-15T13:02:43;97889.91;;;3.22;77.67
77120;BME280;66073;47.730;9.352;2023-02-15T13:07:45;97878.78;;;2.85;76.96
77120;BME280;66073;47.730;9.352;2023-02-15T13:10:26;97880.69;;;3.78;75.63
77120;BME280;66073;47.730;9.352;2023-02-15T13:12:52;97878.50;;;4.02;74.23
77120;BME280;66073;47.730;9.352;2023-02-15T13:15:26;97870.16;;;4.31;74.39
77120;BME280;66073;47.730;9.352;2023-02-15T13:17:55;97867.91;;;4.41;73.23
77120;BME280;66073;47.730;9.352;2023-02-15T13:20:22;97864.78;;;2.78;77.71
77120;BME280;66073;47.730;9.352;2023-02-15T13:22:52;97871.34;;;3.82;75.74
77120;BME280;66073;47.730;9.352;2023-02-15T13:25:22;97868.81;;;3.22;76.10
77120;BME280;66073;47.730;9.352;2023-02-15T13:27:54;97860.69;;;3.23;77.43
77120;BME280;66073;47.730;9.352;2023-02-15T13:32:54;97853.41;;;4.57;72.70
77120;BME280;66073;47.730;9.352;2023-02-15T13:35:21;97854.41;;;5.58;71.17
77120;BME280;66073;47.730;9.352;2023-02-15T13:38:06;97856.53;;;5.42;69.25
77120;BME280;66073;47.730;9.352;2023-02-15T13:40:55;97848.22;;;6.02;69.52
77120;BME280;66073;47.730;9.352;2023-02-15T13:49:38;97845.81;;;6.43;65.23
77120;BME280;66073;47.730;9.352;2023-02-15T13:52:24;97835.81;;;6.45;66.41
77120;BME280;66073;47.730;9.352;2023-02-15T14:06:36;97817.91;;;8.54;62.42
77120;BME280;66073;47.730;9.352;2023-02-15T14:09:16;97824.69;;;7.21;63.85
77120;BME280;66073;47.730;9.352;2023-02-15T14:14:32;97815.09;;;10.69;53.58
77120;BME280;66073;47.730;9.352;2023-02-15T14:17:25;97815.97;;;10.36;54.60
77120;BME280;66073;47.730;9.352;2023-02-15T14:20:15;97816.34;;;12.43;49.01
77120;BME280;66073;47.730;9.352;2023-02-15T14:22:48;97815.97;;;10.36;54.71
77120;BME280;66073;47.730;9.352;2023-02-15T14:25:35;97814.69;;;10.22;55.77
77120;BME280;66073;47.730;9.352;2023-02-15T14:28:22;97807.44;;;11.69;52.67
77120;BME280;66073;47.730;9.352;2023-02-15T14:30:54;97815.09;;;10.69;53.39
77120;BME280;66073;47.730;9.352;2023-02-15T14:33:40;97810.78;;;10.13;55.43
77120;BME280;66073;47.730;9.352;2023-02-15T14:36:15;97808.44;;;9.38;56.70
77120;BME280;66073;47.730;9.352;2023-02-15T14:41:59;97808.19;;;9.84;55.63
77120;BME280;66073;47.730;9.352;2023-02-15T14:44:38;97804.63;;;12.13;49.49
77120;BME280;66073;47.730;9.352;2023-02-15T14:47:15;97798.59;;;12.79;48.36
77120;BME280;66073;47.730;9.352;2023-02-15T14:49:45;97809.06;;;11.49;50.84
77120;BME280;66073;47.730;9.352;2023-02-15T14:52:11;97806.38;;;10.57;53.35
77120;BME280;66073;47.730;9.352;2023-02-15T15:07:51;97802.47;;;11.56;49.39
77120;BME280;66073;47.730;9.352;2023-02-15T15:12:50;97803.72;;;10.78;51.49
77120;BME280;66073;47.730;9.352;2023-02-15T15:20:44;97803.78;;;14.54;42.15
77120;BME280;66073;47.730;9.352;2023-02-15T15:23:38;97800.97;;;13.28;43.65
77120;BME280;66073;47.730;9.352;2023-02-15T15:26:31;97806.19;;;11.77;48.39
77120;BME280;66073;47.730;9.352;2023-02-15T15:29:06;97797.75;;;11.95;48.35
77120;BME280;66073;47.730;9.352;2023-02-15T15:31:46;97792.47;;;13.51;44.11
77120;BME280;66073;47.730;9.352;2023-02-15T15:34:18;97792.06;;;12.60;46.98
77120;BME280;66073;47.730;9.352;2023-02-15T15:50:25;97799.59;;;6.32;66.88
77120;BME280;66073;47.730;9.352;2023-02-15T15:52:52;97802.16;;;6.21;68.07
77120;BME280;66073;47.730;9.352;2023-02-15T15:55:25;97799.25;;;6.04;68.30
77120;BME280;66073;47.730;9.352;2023-02-15T15:57:57;97799.41;;;5.84;68.91
77120;BME280;66073;47.730;9.352;2023-02-15T16:00:41;97801.41;;;5.95;69.00
77120;BME280;66073;47.730;9.352;2023-02-15T16:03:36;97806.59;;;5.53;70.18
77120;BME280;66073;47.730;9.352;2023-02-15T16:06:02;97808.56;;;5.26;71.28
77120;BME280;66073;47.730;9.352;2023-02-15T16:08:37;97812.66;;;4.84;73.41